Time,TemperatureF,DewpointF,PressureIn,WindDirection,WindDirectionDegrees,WindSpeedMPH,WindSpeedGustMPH,Humidity,HourlyPrecipIn,Conditions,Clouds,dailyrainin,SoftwareType,DateUTC
2013-07-23 00:11:00,78.0,78.0,-100.00,West,260,0.0,0.0,99,-99.99,,,-99.99,,2013-07-23 05:11:00,
2013-07-23 00:22:00,78.0,78.0,-100.00,West,260,0.0,0.0,99,-99.99,,,-99.99,,2013-07-23 05:22:00,
2013-07-23 00:44:00,75.0,75.0,-100.00,NE,55,0.0,0.0,99,-99.99,,,-99.99,,2013-07-23 05:44:00,
2013-07-23 00:52:00,75.0,75.0,-100.00,NE,55,0.0,0.0,99,-99.99,,,-99.99,,2013-07-23 05:52:00,
2013-07-23 01:01:00,76.0,71.0,-100.00,East,95,0.0,0.0,84,-99.99,,,-99.99,,2013-07-23 06:01:00,
2013-07-23 01:11:00,75.0,70.0,-100.00,SE,130,0.0,0.0,83,-99.99,,,-99.99,,2013-07-23 06:11:00,
2013-07-23 01:22:00,75.0,70.0,-100.00,SE,130,0.0,0.0,83,-99.99,,,-99.99,,2013-07-23 06:22:00,
2013-07-23 01:42:00,74.0,71.0,-100.00,South,185,0.0,0.0,89,-99.99,,,-99.99,,2013-07-23 06:42:00,
2013-07-23 01:52:00,74.0,71.0,-100.00,South,185,0.0,0.0,89,-99.99,,,-99.99,,2013-07-23 06:52:00,
2013-07-23 02:01:00,73.0,71.0,-100.00,WSW,245,0.0,0.0,93,-99.99,,,-99.99,,2013-07-23 07:01:00,
2013-07-23 02:22:00,73.0,71.0,-100.00,South,185,0.0,0.0,95,-99.99,,,-99.99,,2013-07-23 07:22:00,
2013-07-23 02:42:00,72.0,72.0,-100.00,South,185,0.0,0.0,98,-99.99,,,-99.99,,2013-07-23 07:42:00,
2013-07-23 02:52:00,72.0,72.0,-100.00,South,185,0.0,0.0,98,-99.99,,,-99.99,,2013-07-23 07:52:00,
2013-07-23 03:22:00,72.0,72.0,-100.00,SSE,165,0.0,0.0,99,-99.99,,,-99.99,,2013-07-23 08:22:00,
2013-07-23 03:43:00,72.0,72.0,-100.00,ENE,60,0.0,0.0,99,-99.99,,,-99.99,,2013-07-23 08:43:00,
2013-07-23 03:52:00,72.0,72.0,-100.00,ENE,60,0.0,0.0,99,-99.99,,,-99.99,,2013-07-23 08:52:00,
2013-07-23 04:01:00,71.0,71.0,-100.00,South,185,0.0,0.0,99,-99.99,,,-99.99,,2013-07-23 09:01:00,
2013-07-23 04:11:00,71.0,71.0,-100.00,NNW,330,0.0,0.0,99,-99.99,,,-99.99,,2013-07-23 09:11:00,
2013-07-23 04:22:00,71.0,71.0,-100.00,NNW,330,0.0,0.0,99,-99.99,,,-99.99,,2013-07-23 09:22:00,
2013-07-23 04:53:00,71.0,70.0,-100.00,NNW,335,0.0,0.0,99,-99.99,,,-99.99,,2013-07-23 09:53:00,
2013-07-23 05:22:00,70.0,70.0,-100.00,NE,50,0.0,0.0,99,-99.99,,,-99.99,,2013-07-23 10:22:00,
2013-07-23 06:02:00,71.0,71.0,-100.00,West,280,0.0,0.0,99,-99.99,,,-99.99,,2013-07-23 11:02:00,
2013-07-23 06:12:00,70.0,70.0,-100.00,West,265,0.0,0.0,99,-99.99,,,-99.99,,2013-07-23 11:12:00,
2013-07-23 06:22:00,70.0,70.0,-100.00,West,265,0.0,0.0,99,-99.99,,,-99.99,,2013-07-23 11:22:00,
2013-07-23 06:43:00,70.0,70.0,-100.00,WSW,245,0.0,0.0,99,-99.99,,,-99.99,,2013-07-23 11:43:00,
2013-07-23 06:52:00,70.0,70.0,-100.00,WSW,245,0.0,0.0,99,-99.99,,,-99.99,,2013-07-23 11:52:00,
2013-07-23 07:22:00,69.0,69.0,-100.00,NW,310,0.0,0.0,99,-99.99,,,-99.99,,2013-07-23 12:22:00,
2013-07-23 07:43:00,71.0,70.0,-100.00,West,265,0.0,0.0,99,-99.99,,,-99.99,,2013-07-23 12:43:00,
2013-07-23 08:11:00,73.0,73.0,-100.00,West,265,0.0,0.0,99,-99.99,,,-99.99,,2013-07-23 13:11:00,
2013-07-23 08:22:00,73.0,73.0,-100.00,West,265,0.0,0.0,99,-99.99,,,-99.99,,2013-07-23 13:22:00,
2013-07-23 08:43:00,78.0,72.0,-100.00,WNW,290,0.0,0.0,82,-99.99,,,-99.99,,2013-07-23 13:43:00,
2013-07-23 08:52:00,78.0,72.0,-100.00,WNW,290,0.0,0.0,82,-99.99,,,-99.99,,2013-07-23 13:52:00,
2013-07-23 09:12:00,82.0,70.0,-100.00,North,0,0.0,0.0,69,-99.99,,,-99.99,,2013-07-23 14:12:00,
2013-07-23 09:22:00,82.0,70.0,-100.00,North,0,0.0,0.0,69,-99.99,,,-99.99,,2013-07-23 14:22:00,
2013-07-23 09:33:00,83.0,71.0,-100.00,North,355,0.0,0.0,67,-99.99,,,-99.99,,2013-07-23 14:33:00,
2013-07-23 09:44:00,84.0,71.0,-100.00,NNW,335,0.0,0.0,65,-99.99,,,-99.99,,2013-07-23 14:44:00,
2013-07-23 09:53:00,84.0,71.0,-100.00,NNW,335,0.0,0.0,65,-99.99,,,-99.99,,2013-07-23 14:53:00,
2013-07-23 10:43:00,87.0,70.0,-100.00,NNW,335,0.0,0.0,57,-99.99,,,-99.99,,2013-07-23 15:43:00,
2013-07-23 10:52:00,87.0,70.0,-100.00,NNW,335,0.0,0.0,57,-99.99,,,-99.99,,2013-07-23 15:52:00,
2013-07-23 11:22:00,90.0,72.0,-100.00,NNW,345,0.0,0.0,57,-99.99,,,-99.99,,2013-07-23 16:22:00,
2013-07-23 11:43:00,90.0,72.0,-100.00,West,275,0.0,0.0,54,-99.99,,,-99.99,,2013-07-23 16:43:00,
2013-07-23 11:52:00,90.0,72.0,-100.00,West,275,0.0,0.0,54,-99.99,,,-99.99,,2013-07-23 16:52:00,
2013-07-23 12:42:00,92.0,72.0,-100.00,NW,320,0.0,0.0,52,-99.99,,,-99.99,,2013-07-23 17:42:00,
2013-07-23 12:56:00,92.0,72.0,-100.00,NW,320,0.0,0.0,52,-99.99,,,-99.99,,2013-07-23 17:56:00,
2013-07-23 13:24:00,92.0,72.0,-100.00,West,275,0.0,0.0,53,-99.99,,,-99.99,,2013-07-23 18:24:00,
2013-07-23 13:48:00,91.0,72.0,-100.00,West,275,0.0,0.0,54,-99.99,,,-99.99,,2013-07-23 18:48:00,
2013-07-23 13:57:00,91.0,72.0,-100.00,West,275,0.0,0.0,54,-99.99,,,-99.99,,2013-07-23 18:57:00,
2013-07-23 14:26:00,90.0,72.0,-100.00,NNW,340,0.0,0.0,55,-99.99,,,-99.99,,2013-07-23 19:26:00,
2013-07-23 14:33:00,90.0,71.0,-100.00,NW,325,0.0,0.0,54,-99.99,,,-99.99,,2013-07-23 19:33:00,
2013-07-23 14:46:00,90.0,71.0,-100.00,NW,320,0.0,0.0,54,-99.99,,,-99.99,,2013-07-23 19:46:00,
2013-07-23 14:55:00,90.0,71.0,-100.00,NW,320,0.0,0.0,54,-99.99,,,-99.99,,2013-07-23 19:55:00,
2013-07-23 15:13:00,89.0,70.0,-100.00,NW,305,0.0,0.0,55,-99.99,,,-99.99,,2013-07-23 20:13:00,
2013-07-23 15:23:00,89.0,70.0,-100.00,NW,305,0.0,0.0,55,-99.99,,,-99.99,,2013-07-23 20:23:00,
2013-07-23 15:59:00,87.0,69.0,-100.00,NNW,330,0.0,0.0,54,-99.99,,,-99.99,,2013-07-23 20:59:00,
2013-07-23 16:23:00,86.0,69.0,-100.00,NE,45,0.0,0.0,57,-99.99,,,-99.99,,2013-07-23 21:23:00,
2013-07-23 16:47:00,83.0,68.0,-100.00,NNW,345,0.0,0.0,61,-99.99,,,-99.99,,2013-07-23 21:47:00,
2013-07-23 16:57:00,83.0,68.0,-100.00,NNW,345,0.0,0.0,61,-99.99,,,-99.99,,2013-07-23 21:57:00,
2013-07-23 17:24:00,81.0,68.0,-100.00,NNW,330,0.0,0.0,64,-99.99,,,-99.99,,2013-07-23 22:24:00,
2013-07-23 18:00:00,80.0,68.0,-100.00,North,355,0.0,0.0,68,-99.99,,,-99.99,,2013-07-23 23:00:00,
2013-07-23 18:13:00,79.0,68.0,-100.00,NNW,340,0.0,0.0,70,-99.99,,,-99.99,,2013-07-23 23:13:00,
2013-07-23 18:24:00,79.0,68.0,-100.00,NNW,340,0.0,0.0,70,-99.99,,,-99.99,,2013-07-23 23:24:00,
2013-07-23 18:35:00,78.0,68.0,-100.00,NNW,345,0.0,0.0,70,-99.99,,,-99.99,,2013-07-23 23:35:00,
2013-07-23 18:44:00,78.0,67.0,-100.00,NNW,345,0.0,0.0,70,-99.99,,,-99.99,,2013-07-23 23:44:00,
2013-07-23 18:59:00,78.0,67.0,-100.00,NNW,345,0.0,0.0,70,-99.99,,,-99.99,,2013-07-23 23:59:00,
2013-07-23 19:08:00,77.0,67.0,-100.00,NNW,345,0.0,0.0,71,-99.99,,,-99.99,,2013-07-24 00:08:00,
2013-07-23 19:14:00,77.0,67.0,-100.00,NE,55,0.0,0.0,71,-99.99,,,-99.99,,2013-07-24 00:14:00,
2013-07-23 19:26:00,77.0,67.0,-100.00,NE,55,0.0,0.0,71,-99.99,,,-99.99,,2013-07-24 00:26:00,
2013-07-23 19:48:00,76.0,67.0,-100.00,North,355,0.0,0.0,73,-99.99,,,-99.99,,2013-07-24 00:48:00,
2013-07-23 19:58:00,76.0,67.0,-100.00,North,355,0.0,0.0,73,-99.99,,,-99.99,,2013-07-24 00:58:00,
2013-07-23 20:04:00,75.0,67.0,-100.00,NNW,345,0.0,0.0,74,-99.99,,,-99.99,,2013-07-24 01:04:00,
2013-07-23 20:24:00,75.0,67.0,-100.00,NE,55,0.0,0.0,75,-99.99,,,-99.99,,2013-07-24 01:24:00,
2013-07-23 20:44:00,74.0,66.0,-100.00,NNW,330,0.0,0.0,76,-99.99,,,-99.99,,2013-07-24 01:44:00,
2013-07-23 21:16:00,74.0,66.0,-100.00,ENE,60,0.0,0.0,76,-99.99,,,-99.99,,2013-07-24 02:16:00,
2013-07-23 21:27:00,74.0,66.0,-100.00,ENE,60,0.0,0.0,76,-99.99,,,-99.99,,2013-07-24 02:27:00,
2013-07-23 21:38:00,73.0,66.0,-100.00,NNW,345,0.0,0.0,78,-99.99,,,-99.99,,2013-07-24 02:38:00,
2013-07-23 21:57:00,73.0,66.0,-100.00,NW,320,0.0,0.0,80,-99.99,,,-99.99,,2013-07-24 02:57:00,
2013-07-23 22:13:00,71.0,67.0,-100.00,North,350,0.0,0.0,86,-99.99,,,-99.99,,2013-07-24 03:13:00,
2013-07-23 22:24:00,71.0,67.0,-100.00,North,350,0.0,0.0,86,-99.99,,,-99.99,,2013-07-24 03:24:00,
2013-07-23 22:37:00,71.0,67.0,-100.00,NNW,345,0.0,0.0,88,-99.99,,,-99.99,,2013-07-24 03:37:00,
2013-07-23 22:45:00,70.0,67.0,-100.00,NNW,335,0.0,0.0,90,-99.99,,,-99.99,,2013-07-24 03:45:00,
2013-07-23 22:57:00,70.0,67.0,-100.00,NNW,335,0.0,0.0,90,-99.99,,,-99.99,,2013-07-24 03:57:00,
2013-07-23 23:11:00,70.0,67.0,-100.00,North,350,0.0,0.0,91,-99.99,,,-99.99,,2013-07-24 04:11:00,
2013-07-23 23:22:00,70.0,67.0,-100.00,North,350,0.0,0.0,91,-99.99,,,-99.99,,2013-07-24 04:22:00,
2013-07-23 23:32:00,69.0,67.0,-100.00,North,355,0.0,0.0,92,-99.99,,,-99.99,,2013-07-24 04:32:00,
2013-07-23 23:43:00,69.0,67.0,-100.00,North,355,0.0,0.0,93,-99.99,,,-99.99,,2013-07-24 04:43:00,
2013-07-23 23:53:00,69.0,67.0,-100.00,North,355,0.0,0.0,93,-99.99,,,-99.99,,2013-07-24 04:53:00,